ADDS METAR Data INFO
IDs: Format: Raw Decoded Include TAF

Data at: 0255 UTC 21 Oct 2017

KEBA 210235Z AUTO 00000KT 10SM CLR 13/12 A3025 RMK AO2 T01300117
KEBA 210215Z AUTO 00000KT 10SM CLR 14/12 A3025 RMK AO2 T01350120
KEBA 210155Z AUTO 00000KT 10SM CLR 14/12 A3024 RMK AO2 T01360122
KEBA 210135Z AUTO 00000KT 10SM CLR 14/12 A3024 RMK AO2 T01370123
KEBA 210115Z AUTO 00000KT 10SM CLR 14/13 A3023 RMK AO2 T01430126
KEBA 210055Z AUTO 00000KT 10SM CLR 15/12 A3023 RMK AO2 T01460123
KEBA 210035Z AUTO 00000KT 10SM CLR 15/12 A3023 RMK AO2 T01520121
KEBA 210015Z AUTO 00000KT 10SM CLR 16/12 A3023 RMK AO2 T01550123
KEBA 202355Z AUTO 00000KT 10SM CLR 16/13 A3023 RMK AO2 T01620125 10276 20162
KEBA 202335Z AUTO 00000KT 10SM CLR 17/13 A3022 RMK AO2 T01700125
KEBA 202315Z AUTO 00000KT 10SM CLR 18/12 A3021 RMK AO2 T01800122
KEBA 202255Z AUTO 00000KT 10SM CLR 19/13 A3021 RMK AO2 T01930125
KEBA 202235Z AUTO 00000KT 10SM CLR 21/12 A3021 RMK AO2 T02100120
KEBA 202215Z AUTO 00000KT 10SM CLR 23/11 A3020 RMK AO2 T02330114
KEBA 202155Z AUTO 00000KT 10SM CLR 25/09 A3020 RMK AO2 T02540085
KEBA 202135Z AUTO 00000KT 10SM CLR 26/07 A3020 RMK AO2 T02630065
KEBA 202115Z AUTO 08004KT 10SM CLR 27/06 A3020 RMK AO2 T02660055
KEBA 202055Z AUTO 09004KT 10SM CLR 27/04 A3021 RMK AO2 T02680035
KEBA 202035Z AUTO 00000KT 10SM CLR 27/02 A3022 RMK AO2 T02710018
KEBA 202015Z AUTO 10004KT 10SM CLR 27/03 A3021 RMK AO2 T02740028
KEBA 201955Z AUTO 09003KT 10SM CLR 28/05 A3022 RMK AO2 T02750050
KEBA 201935Z AUTO 07003KT 10SM CLR 27/06 A3022 RMK AO2 T02720062
KEBA 201915Z AUTO 00000KT 10SM CLR 27/06 A3023 RMK AO2 T02690059
KEBA 201855Z AUTO 00000KT 10SM CLR 26/06 A3023 RMK AO2 T02630057
KEBA 201835Z AUTO 09004KT 10SM CLR 27/07 A3025 RMK AO2 T02700065
KEBA 201815Z AUTO 00000KT 10SM CLR 26/07 A3025 RMK AO2 T02580068
KEBA 201755Z AUTO 13004KT 10SM CLR 26/09 A3026 RMK AO2 T02580085 10258 20061
KEBA 201735Z AUTO 00000KT 10SM CLR 25/09 A3027 RMK AO2 T02510085
KEBA 201715Z AUTO 00000KT 10SM CLR 24/09 A3029 RMK AO2 T02440090
KEBA 201655Z AUTO 00000KT 10SM CLR 25/09 A3029 RMK AO2 T02450087
KEBA 201635Z AUTO 10003KT 10SM CLR 24/11 A3030 RMK AO2 T02360108
KEBA 201615Z AUTO 00000KT 10SM CLR 23/11 A3031 RMK AO2 T02260110
KEBA 201555Z AUTO 00000KT 10SM CLR 22/11 A3031 RMK AO2 T02210109
KEBA 201535Z AUTO 00000KT 10SM CLR 21/11 A3032 RMK AO2 T02120113
KEBA 201515Z AUTO 00000KT 10SM CLR 21/12 A3032 RMK AO2 T02050121
KEBA 201455Z AUTO 00000KT 10SM CLR 19/13 A3032 RMK AO2 T01940130
KEBA 201435Z AUTO 00000KT 10SM CLR 18/13 A3033 RMK AO2 T01810129
KEBA 201415Z AUTO 00000KT 10SM CLR 17/13 A3033 RMK AO2 T01680126
KEBA 201355Z AUTO 00000KT 10SM CLR 15/13 A3032 RMK AO2 T01520130
KEBA 201335Z AUTO 00000KT 10SM CLR 14/13 A3032 RMK AO2 T01400130
KEBA 201315Z AUTO 00000KT 10SM CLR 12/12 A3032 RMK AO2 T01200119
KEBA 201255Z AUTO 00000KT 10SM CLR 09/09 A3031 RMK AO2 T00920092
KEBA 201235Z AUTO 00000KT 10SM CLR 08/08 A3031 RMK AO2 T00750075
KEBA 201215Z AUTO 00000KT 10SM CLR 07/07 A3030 RMK AO2 T00660066
KEBA 201155Z AUTO 00000KT 10SM CLR 06/06 A3030 RMK AO2 T00600060 10082 20060
KEBA 201135Z AUTO 35003KT 10SM CLR 06/06 A3029 RMK AO2 T00620062
KEBA 201115Z AUTO 00000KT 10SM CLR 07/07 A3030 RMK AO2 T00660066
KEBA 201055Z AUTO 00000KT 10SM CLR 07/07 A3029 RMK AO2 T00690069
KEBA 201035Z AUTO 00000KT 10SM CLR 07/07 A3029 RMK AO2 T00700070
KEBA 201015Z AUTO 00000KT 10SM CLR 07/07 A3028 RMK AO2 T00700070
KEBA 200955Z AUTO 00000KT 7SM CLR 07/07 A3028 RMK AO2 T00690069
KEBA 200935Z AUTO 00000KT 10SM CLR 07/07 A3027 RMK AO2 T00680068
KEBA 200915Z AUTO 00000KT 10SM CLR 08/08 A3027 RMK AO2 T00770077
KEBA 200855Z AUTO 00000KT 10SM CLR 07/07 A3027 RMK AO2 T00700070
KEBA 200835Z AUTO 00000KT 10SM CLR 07/07 A3026 RMK AO2 T00680068
KEBA 200815Z AUTO 00000KT 10SM CLR 07/07 A3027 RMK AO2 T00690069
KEBA 200755Z AUTO 36004KT 10SM CLR 07/07 A3027 RMK AO2 T00740074
KEBA 200735Z AUTO 00000KT 10SM CLR 07/07 A3027 RMK AO2 T00720072
KEBA 200715Z AUTO 00000KT 10SM CLR 08/08 A3027 RMK AO2 T00810081
KEBA 200655Z AUTO 00000KT 10SM CLR 08/08 A3027 RMK AO2 T00780078
KEBA 200635Z AUTO 00000KT 10SM CLR 08/08 A3028 RMK AO2 T00800080
KEBA 200615Z AUTO 00000KT 10SM CLR 08/08 A3028 RMK AO2 T00810081
KEBA 200555Z AUTO 00000KT 10SM CLR 08/08 A3028 RMK AO2 T00770077 10140 20077 402430052
KEBA 200535Z AUTO 00000KT 10SM CLR 08/08 A3028 RMK AO2 T00830083
KEBA 200515Z AUTO 35003KT 10SM CLR 09/09 A3027 RMK AO2 T00860086
KEBA 200455Z AUTO 00000KT 10SM CLR 09/09 A3028 RMK AO2 T00880088
KEBA 200435Z AUTO 00000KT 10SM CLR 09/09 A3028 RMK AO2 T00890089
KEBA 200415Z AUTO 00000KT 10SM CLR 09/09 A3028 RMK AO2 T00890089
KEBA 200355Z AUTO 00000KT 10SM CLR 09/09 A3028 RMK AO2 T00900087
KEBA 200335Z AUTO 00000KT 10SM CLR 10/09 A3028 RMK AO2 T00980093
KEBA 200315Z AUTO 00000KT 10SM CLR 10/10 A3028 RMK AO2 T01000096
KEBA 200255Z AUTO 00000KT 10SM CLR 10/10 A3027 RMK AO2 T01040100
KEBA 200235Z AUTO 00000KT 10SM CLR 11/10 A3027 RMK AO2 T01100099
KEBA 200215Z AUTO 00000KT 10SM CLR 11/10 A3027 RMK AO2 T01070099
KEBA 200155Z AUTO 00000KT 10SM CLR 11/10 A3027 RMK AO2 T01100100
KEBA 200135Z AUTO 00000KT 10SM CLR 12/11 A3027 RMK AO2 T01150105
KEBA 200115Z AUTO 00000KT 10SM CLR 12/10 A3027 RMK AO2 T01170104
KEBA 200055Z AUTO 00000KT 10SM CLR 12/11 A3027 RMK AO2 T01210111
KEBA 200035Z AUTO 00000KT 10SM CLR 13/11 A3027 RMK AO2 T01260112
KEBA 200015Z AUTO 00000KT 10SM CLR 13/11 A3026 RMK AO2 T01320112
KEBA 192355Z AUTO 00000KT 10SM CLR 14/11 A3026 RMK AO2 T01400110 10243 20140
KEBA 192335Z AUTO 00000KT 10SM CLR 15/11 A3026 RMK AO2 T01470112
KEBA 192315Z AUTO 00000KT 10SM CLR 16/12 A3025 RMK AO2 T01580117
KEBA 192255Z AUTO 00000KT 10SM CLR 17/12 A3025 RMK AO2 T01700115
KEBA 192235Z AUTO 00000KT 10SM CLR 19/11 A3025 RMK AO2 T01900110
KEBA 192215Z AUTO 00000KT 10SM CLR 21/11 A3024 RMK AO2 T02080106
KEBA 192155Z AUTO 00000KT 10SM CLR 23/09 A3024 RMK AO2 T02310087
KEBA 192135Z AUTO 11003KT 10SM CLR 24/05 A3024 RMK AO2 T02360050
KEBA 192115Z AUTO 10003KT 10SM CLR 24/06 A3025 RMK AO2 T02400060
KEBA 192055Z AUTO 00000KT 10SM CLR 24/05 A3025 RMK AO2 T02400053
KEBA 192035Z AUTO 00000KT 10SM CLR 24/05 A3025 RMK AO2 T02430047
KEBA 192015Z AUTO 00000KT 10SM CLR 24/04 A3025 RMK AO2 T02400037
KEBA 191955Z AUTO 00000KT 10SM CLR 24/04 A3025 RMK AO2 T02370041
KEBA 191935Z AUTO 00000KT 10SM CLR 24/05 A3026 RMK AO2 T02350047
KEBA 191915Z AUTO 00000KT 10SM CLR 24/05 A3026 RMK AO2 T02380053
KEBA 191855Z AUTO 00000KT 10SM CLR 23/05 A3027 RMK AO2 T02300053
KEBA 191835Z AUTO 00000KT 10SM CLR 23/05 A3028 RMK AO2 T02260053
KEBA 191815Z AUTO 00000KT 10SM CLR 23/06 A3029 RMK AO2 T02280060
KEBA 191755Z AUTO 05003KT 10SM CLR 23/06 A3030 RMK AO2 T02250058 10225 20056
KEBA 191735Z AUTO 00000KT 10SM CLR 22/05 A3031 RMK AO2 T02170052
KEBA 191715Z AUTO 00000KT 10SM CLR 22/05 A3032 RMK AO2 T02200051
KEBA 191655Z AUTO 00000KT 10SM CLR 21/06 A3033 RMK AO2 T02120056
KEBA 191635Z AUTO 00000KT 10SM CLR 21/07 A3034 RMK AO2 T02070074
KEBA 191615Z AUTO 00000KT 10SM CLR 20/07 A3035 RMK AO2 T02020069
KEBA 191555Z AUTO 00000KT 10SM CLR 19/08 A3036 RMK AO2 T01940081
KEBA 191535Z AUTO 00000KT 10SM CLR 19/09 A3037 RMK AO2 T01850089
KEBA 191515Z AUTO 04004KT 10SM CLR 17/09 A3036 RMK AO2 T01730094